createdAt,value
2022-10-20T00:00:07.805Z,14.31
2022-10-20T00:02:34.299Z,14.31
2022-10-20T00:05:00.993Z,14.30
2022-10-20T00:07:27.282Z,14.29
2022-10-20T00:09:53.535Z,14.28
2022-10-20T00:12:19.944Z,14.27
2022-10-20T00:14:46.165Z,14.26
2022-10-20T00:17:12.425Z,14.26
2022-10-20T00:19:38.651Z,14.25
2022-10-20T00:22:05.130Z,14.26
2022-10-20T00:24:31.541Z,14.25
2022-10-20T00:26:57.766Z,14.24
2022-10-20T00:29:23.986Z,14.23
2022-10-20T00:31:50.262Z,14.24
2022-10-20T00:34:16.709Z,14.22
2022-10-20T00:36:46.246Z,14.23
2022-10-20T00:39:15.131Z,14.22
2022-10-20T00:41:41.551Z,14.23
2022-10-20T00:44:26.421Z,14.23
2022-10-20T00:46:52.659Z,14.22
2022-10-20T00:49:23.897Z,14.21
2022-10-20T00:51:51.240Z,14.21
2022-10-20T00:54:19.628Z,14.20
2022-10-20T00:56:47.295Z,14.20
2022-10-20T00:59:14.997Z,14.20
2022-10-20T01:01:41.517Z,14.19
2022-10-20T01:04:07.823Z,14.18
2022-10-20T01:06:34.202Z,14.18
2022-10-20T01:09:00.746Z,14.17
2022-10-20T01:11:27.692Z,14.15
2022-10-20T01:13:57.107Z,14.14
2022-10-20T01:16:26.817Z,14.15
2022-10-20T01:19:03.224Z,14.13
2022-10-20T01:21:52.621Z,14.12
2022-10-20T01:24:37.838Z,14.12
2022-10-20T01:27:19.179Z,14.12
2022-10-20T01:29:50.559Z,14.12
2022-10-20T01:32:23.030Z,14.13
2022-10-20T01:35:04.312Z,14.11
2022-10-20T01:37:50.386Z,14.11
2022-10-20T01:40:22.375Z,14.13
2022-10-20T01:42:51.472Z,14.13
2022-10-20T01:45:18.680Z,14.15
2022-10-20T01:47:45.804Z,14.15
2022-10-20T01:50:12.607Z,14.16
2022-10-20T01:52:39.369Z,14.15
2022-10-20T01:55:13.806Z,14.16
2022-10-20T01:57:58.754Z,14.15
2022-10-20T02:00:25.290Z,14.13
2022-10-20T02:03:03.335Z,14.13
2022-10-20T02:05:42.152Z,14.10
2022-10-20T02:08:13.470Z,14.08
2022-10-20T02:10:59.992Z,14.07
2022-10-20T02:13:28.165Z,14.04
2022-10-20T02:15:56.716Z,14.02
2022-10-20T02:18:31.920Z,14.00
2022-10-20T02:20:59.754Z,13.97
2022-10-20T02:23:26.094Z,13.95
2022-10-20T02:25:53.174Z,13.93
2022-10-20T02:28:19.984Z,13.93
2022-10-20T02:30:47.314Z,13.91
2022-10-20T02:33:14.384Z,13.91
2022-10-20T02:35:42.778Z,13.89
2022-10-20T02:38:09.197Z,13.91
2022-10-20T02:40:35.425Z,13.89
2022-10-20T02:43:01.666Z,13.90
2022-10-20T02:45:27.873Z,13.89
2022-10-20T02:47:54.295Z,13.92
2022-10-20T02:50:20.559Z,13.91
2022-10-20T02:52:47.026Z,13.91
2022-10-20T02:55:13.408Z,13.91
2022-10-20T02:57:39.887Z,13.91
2022-10-20T03:00:06.955Z,13.89
2022-10-20T03:02:33.295Z,13.91
2022-10-20T03:04:59.593Z,13.92
2022-10-20T03:07:25.856Z,13.93
2022-10-20T03:09:52.156Z,13.93
2022-10-20T03:12:18.603Z,13.94
2022-10-20T03:14:45.430Z,13.96
2022-10-20T03:17:11.666Z,13.95
2022-10-20T03:19:38.134Z,13.98
2022-10-20T03:22:04.474Z,14.00
2022-10-20T03:24:30.779Z,14.02
2022-10-20T03:26:57.034Z,14.03
2022-10-20T03:29:23.264Z,14.04
2022-10-20T03:34:20.870Z,14.04
2022-10-20T03:36:47.148Z,14.05
2022-10-20T03:39:13.388Z,14.03
2022-10-20T03:41:39.618Z,14.04
2022-10-20T03:44:05.896Z,14.04
2022-10-20T03:46:32.127Z,14.02
2022-10-20T03:48:58.607Z,14.03
2022-10-20T03:51:24.842Z,14.01
2022-10-20T03:53:51.144Z,14.01
2022-10-20T03:56:18.490Z,14.00
2022-10-20T03:58:45.061Z,14.01
2022-10-20T04:01:15.188Z,14.00
2022-10-20T04:03:41.743Z,13.99
2022-10-20T04:06:08.022Z,13.99
2022-10-20T04:08:34.663Z,13.98
2022-10-20T04:11:00.917Z,13.98
2022-10-20T04:13:27.331Z,13.97
2022-10-20T04:15:53.626Z,13.98
2022-10-20T04:18:19.863Z,13.97
2022-10-20T04:20:47.228Z,13.97
2022-10-20T04:23:13.486Z,13.96
2022-10-20T04:25:40.732Z,13.96
2022-10-20T04:28:06.959Z,13.95
2022-10-20T04:30:33.209Z,13.94
2022-10-20T04:32:59.426Z,13.93
2022-10-20T04:35:25.817Z,13.95
2022-10-20T04:37:52.027Z,13.92
2022-10-20T04:40:20.849Z,13.93
2022-10-20T04:42:47.090Z,13.94
2022-10-20T04:45:13.505Z,13.95
2022-10-20T04:47:39.982Z,13.96
2022-10-20T04:50:06.600Z,13.97
2022-10-20T04:52:32.870Z,13.98
2022-10-20T04:54:59.162Z,13.98
2022-10-20T04:57:25.738Z,13.99
2022-10-20T04:59:51.947Z,13.98
2022-10-20T05:02:18.528Z,13.99
2022-10-20T05:04:45.421Z,14.00
2022-10-20T05:07:11.700Z,13.98
2022-10-20T05:09:37.923Z,14.00
2022-10-20T05:12:06.306Z,14.01
2022-10-20T05:14:32.572Z,13.99
2022-10-20T05:16:59.911Z,13.99
2022-10-20T05:19:27.376Z,13.98
2022-10-20T05:21:53.721Z,13.98
2022-10-20T05:24:22.007Z,13.97
2022-10-20T05:26:49.211Z,13.97
2022-10-20T05:29:15.436Z,13.97
2022-10-20T05:31:42.990Z,13.99
2022-10-20T05:34:10.076Z,13.98
2022-10-20T05:36:36.981Z,14.00
2022-10-20T05:39:03.450Z,14.00
2022-10-20T05:41:33.494Z,14.00
2022-10-20T05:44:04.715Z,14.03
2022-10-20T05:46:32.561Z,14.02
2022-10-20T05:49:01.811Z,14.04
2022-10-20T05:51:29.363Z,14.05
2022-10-20T05:53:56.507Z,14.05
2022-10-20T05:56:23.610Z,14.06
2022-10-20T05:58:50.035Z,14.07
2022-10-20T06:01:19.291Z,14.07
2022-10-20T06:03:49.902Z,14.09
2022-10-20T06:06:17.789Z,14.09
2022-10-20T06:08:44.349Z,14.11
2022-10-20T06:11:11.791Z,14.12
2022-10-20T06:13:38.116Z,14.14
2022-10-20T06:16:05.112Z,14.14
2022-10-20T06:18:31.715Z,14.14
2022-10-20T06:21:02.361Z,14.14
2022-10-20T06:23:28.888Z,14.15
2022-10-20T06:25:55.430Z,14.17
2022-10-20T06:28:21.861Z,14.17
2022-10-20T06:30:48.270Z,14.17
2022-10-20T06:33:16.818Z,14.18
2022-10-20T06:35:43.076Z,14.19
2022-10-20T06:38:09.961Z,14.19
2022-10-20T06:40:36.192Z,14.20
2022-10-20T06:43:02.520Z,14.21
2022-10-20T06:45:28.799Z,14.23
2022-10-20T06:47:55.182Z,14.25
2022-10-20T06:50:21.640Z,14.27
2022-10-20T06:52:47.956Z,14.30
2022-10-20T06:55:14.259Z,14.34
2022-10-20T06:57:40.480Z,14.37
2022-10-20T07:00:07.051Z,14.42
2022-10-20T07:02:33.436Z,14.47
2022-10-20T07:04:59.821Z,14.52
2022-10-20T07:07:26.171Z,14.59
2022-10-20T07:09:52.618Z,14.64
2022-10-20T07:12:20.652Z,14.72
2022-10-20T07:14:47.727Z,14.79
2022-10-20T07:17:14.057Z,14.86
2022-10-20T07:19:40.263Z,14.93
2022-10-20T07:22:06.679Z,15.01
2022-10-20T07:24:33.083Z,15.06
2022-10-20T07:27:01.211Z,15.13
2022-10-20T07:29:27.491Z,15.21
2022-10-20T07:31:53.946Z,15.28
2022-10-20T07:34:26.423Z,15.35
2022-10-20T07:36:54.351Z,15.44
2022-10-20T07:39:20.642Z,15.51
2022-10-20T07:41:48.361Z,15.59
2022-10-20T07:44:15.501Z,15.66
2022-10-20T07:46:42.124Z,15.73
2022-10-20T07:49:42.458Z,15.80
2022-10-20T07:51:54.851Z,15.87
2022-10-20T07:54:21.130Z,15.94
2022-10-20T07:56:47.495Z,16.01
2022-10-20T07:59:13.822Z,16.08
2022-10-20T08:01:40.673Z,16.17
2022-10-20T08:04:07.315Z,16.26
2022-10-20T08:06:33.676Z,16.33
2022-10-20T08:09:00.419Z,16.41
2022-10-20T08:11:26.966Z,16.50
2022-10-20T08:13:53.400Z,16.58
2022-10-20T08:19:08.160Z,16.77
2022-10-20T08:21:34.460Z,16.85
2022-10-20T08:24:02.700Z,16.95
2022-10-20T08:26:28.945Z,17.03
2022-10-20T08:28:55.176Z,17.12
2022-10-20T08:31:21.785Z,17.20
2022-10-20T08:33:52.265Z,17.30
2022-10-20T08:36:19.574Z,17.38
2022-10-20T08:38:45.821Z,17.48
2022-10-20T08:41:19.839Z,17.58
2022-10-20T08:43:47.204Z,17.67
2022-10-20T08:48:46.102Z,17.88
2022-10-20T08:51:16.462Z,17.99
2022-10-20T08:53:42.735Z,18.09
2022-10-20T08:56:11.981Z,18.21
2022-10-20T08:58:41.619Z,18.33
2022-10-20T09:01:14.409Z,18.45
2022-10-20T09:03:41.457Z,18.56
2022-10-20T09:06:12.703Z,18.67
2022-10-20T09:08:40.081Z,18.78
2022-10-20T09:11:08.759Z,18.89
2022-10-20T09:13:36.552Z,19.02
2022-10-20T09:16:08.073Z,19.14
2022-10-20T09:18:34.782Z,19.28
2022-10-20T09:21:04.173Z,19.43
2022-10-20T09:23:42.276Z,19.58
2022-10-20T09:26:30.596Z,19.72
2022-10-20T09:29:12.907Z,19.89
2022-10-20T09:31:41.306Z,20.01
2022-10-20T09:34:30.589Z,20.14
2022-10-20T09:37:09.015Z,20.28
2022-10-20T09:39:41.666Z,20.42
2022-10-20T09:42:14.357Z,20.54
2022-10-20T09:44:53.068Z,20.66
2022-10-20T09:47:20.443Z,20.77
2022-10-20T09:49:47.292Z,20.86
2022-10-20T09:52:16.997Z,20.94
2022-10-20T09:54:46.651Z,21.04
2022-10-20T09:57:17.458Z,21.12
2022-10-20T09:59:48.271Z,21.21
2022-10-20T10:02:14.459Z,21.31
2022-10-20T10:04:45.720Z,21.40
2022-10-20T10:07:32.187Z,21.47
2022-10-20T10:10:21.816Z,21.57
2022-10-20T10:12:52.407Z,21.64
2022-10-20T10:15:25.707Z,21.71
2022-10-20T10:17:52.594Z,21.78
2022-10-20T10:20:18.803Z,21.85
2022-10-20T10:22:45.107Z,21.93
2022-10-20T10:25:16.756Z,22.00
2022-10-20T10:27:56.720Z,22.07
2022-10-20T10:30:30.751Z,22.14
2022-10-20T10:32:57.289Z,22.21
2022-10-20T10:35:29.002Z,22.27
2022-10-20T10:37:55.473Z,22.33
2022-10-20T10:40:28.751Z,22.40
2022-10-20T10:43:01.484Z,22.44
2022-10-20T10:45:30.923Z,22.51
2022-10-20T10:48:15.767Z,22.54
2022-10-20T10:50:48.149Z,22.58
2022-10-20T10:53:31.307Z,22.62
2022-10-20T10:56:12.891Z,22.66
2022-10-20T10:58:43.015Z,22.69
2022-10-20T11:01:27.911Z,22.72
2022-10-20T11:03:54.107Z,22.74
2022-10-20T11:06:24.340Z,22.76
2022-10-20T11:09:01.004Z,22.77
2022-10-20T11:11:27.414Z,22.78
2022-10-20T11:14:10.650Z,22.79
2022-10-20T11:16:52.263Z,22.81
2022-10-20T11:19:28.185Z,22.81
2022-10-20T11:22:09.406Z,22.81
2022-10-20T11:24:56.748Z,22.83
2022-10-20T11:27:25.686Z,22.84
2022-10-20T11:30:05.621Z,22.85
2022-10-20T11:35:16.300Z,22.90
2022-10-20T11:37:47.749Z,22.92
2022-10-20T11:40:24.399Z,22.94
2022-10-20T11:42:50.680Z,22.93
2022-10-20T11:45:26.043Z,22.94
2022-10-20T11:47:56.917Z,22.96
2022-10-20T11:50:23.438Z,22.95
2022-10-20T11:53:00.741Z,22.94
2022-10-20T11:55:45.716Z,22.94
2022-10-20T11:58:15.202Z,22.92
2022-10-20T12:00:41.498Z,22.93
2022-10-20T12:03:18.316Z,22.91
2022-10-20T12:05:47.692Z,22.89
2022-10-20T12:08:31.115Z,22.86
2022-10-20T12:11:03.742Z,22.83
2022-10-20T12:13:29.973Z,22.78
2022-10-20T12:15:56.462Z,22.74
2022-10-20T12:18:27.691Z,22.70
2022-10-20T12:21:14.225Z,22.66
2022-10-20T12:23:43.953Z,22.64
2022-10-20T12:26:28.591Z,22.62
2022-10-20T12:28:58.164Z,22.58
2022-10-20T12:31:25.670Z,22.58
2022-10-20T12:33:53.187Z,22.56
2022-10-20T12:36:19.425Z,22.56
2022-10-20T12:38:53.617Z,22.55
2022-10-20T12:41:27.641Z,22.55
2022-10-20T12:43:55.182Z,22.55
2022-10-20T12:46:23.187Z,22.56
2022-10-20T12:48:56.635Z,22.56
2022-10-20T12:51:48.241Z,22.57
2022-10-20T12:54:29.585Z,22.60
2022-10-20T12:56:58.339Z,22.60
2022-10-20T12:59:24.798Z,22.61
2022-10-20T13:02:09.181Z,22.60
2022-10-20T13:04:57.913Z,22.60
2022-10-20T13:07:42.852Z,22.58
2022-10-20T13:10:30.694Z,22.57
2022-10-20T13:13:03.234Z,22.55
2022-10-20T13:15:29.435Z,22.55
2022-10-20T13:18:01.641Z,22.54
2022-10-20T13:20:43.251Z,22.54
2022-10-20T13:23:11.785Z,22.52
2022-10-20T13:25:50.698Z,22.51
2022-10-20T13:28:24.784Z,22.48
2022-10-20T13:31:01.880Z,22.45
2022-10-20T13:34:02.052Z,22.42
2022-10-20T13:36:44.475Z,22.36
2022-10-20T13:39:17.226Z,22.33
2022-10-20T13:41:50.837Z,22.30
2022-10-20T13:44:29.140Z,22.27
2022-10-20T13:47:17.413Z,22.24
2022-10-20T13:49:55.852Z,22.22
2022-10-20T13:52:22.457Z,22.20
2022-10-20T13:54:50.542Z,22.16
2022-10-20T13:57:28.018Z,22.14
2022-10-20T13:59:55.389Z,22.11
2022-10-20T14:02:23.525Z,22.06
2022-10-20T14:05:01.122Z,22.03
2022-10-20T14:07:34.780Z,22.01
2022-10-20T14:10:01.018Z,21.99
2022-10-20T14:12:27.335Z,21.97
2022-10-20T14:15:00.742Z,21.95
2022-10-20T14:17:28.345Z,21.93
2022-10-20T14:20:18.154Z,21.92
2022-10-20T14:22:45.061Z,21.92
2022-10-20T14:25:12.280Z,21.91
2022-10-20T14:27:39.400Z,21.90
2022-10-20T14:30:06.497Z,21.89
2022-10-20T14:32:34.725Z,21.88
2022-10-20T14:35:00.979Z,21.88
2022-10-20T14:37:32.074Z,21.85
2022-10-20T14:40:03.255Z,21.84
2022-10-20T14:42:31.148Z,21.84
2022-10-20T14:44:58.437Z,21.81
2022-10-20T14:47:28.097Z,21.80
2022-10-20T14:49:54.894Z,21.79
2022-10-20T14:52:23.483Z,21.78
2022-10-20T14:54:50.602Z,21.77
2022-10-20T14:57:16.874Z,21.77
2022-10-20T14:59:51.679Z,21.75
2022-10-20T15:02:20.780Z,21.76
2022-10-20T15:04:48.313Z,21.77
2022-10-20T15:07:35.127Z,21.78
2022-10-20T15:10:09.695Z,21.78
2022-10-20T15:12:36.210Z,21.79
2022-10-20T15:15:04.922Z,21.79
2022-10-20T15:17:31.189Z,21.79
2022-10-20T15:19:57.450Z,21.80
2022-10-20T15:22:23.675Z,21.80
2022-10-20T15:24:50.354Z,21.79
2022-10-20T15:27:17.648Z,21.77
2022-10-20T15:29:50.984Z,21.77
2022-10-20T15:32:17.733Z,21.74
2022-10-20T15:34:44.747Z,21.74
2022-10-20T15:37:10.987Z,21.72
2022-10-20T15:39:37.406Z,21.71
2022-10-20T15:42:11.052Z,21.68
2022-10-20T15:44:38.019Z,21.66
2022-10-20T15:47:04.264Z,21.62
2022-10-20T15:49:30.722Z,21.58
2022-10-20T15:51:57.174Z,21.55
2022-10-20T15:54:23.518Z,21.51
2022-10-20T15:56:50.079Z,21.47
2022-10-20T15:59:16.319Z,21.45
2022-10-20T16:01:42.781Z,21.41
2022-10-20T16:04:23.549Z,21.39
2022-10-20T16:06:52.475Z,21.37
2022-10-20T16:09:19.795Z,21.35
2022-10-20T16:11:46.583Z,21.33
2022-10-20T16:14:13.349Z,21.31
2022-10-20T16:16:39.619Z,21.29
2022-10-20T16:19:05.901Z,21.28
2022-10-20T16:21:32.399Z,21.24
2022-10-20T16:23:58.779Z,21.24
2022-10-20T16:26:25.278Z,21.21
2022-10-20T16:28:51.568Z,21.18
2022-10-20T16:31:19.424Z,21.17
2022-10-20T16:33:46.273Z,21.14
2022-10-20T16:36:15.252Z,21.11
2022-10-20T16:38:42.160Z,21.07
2022-10-20T16:41:10.296Z,21.07
2022-10-20T16:43:37.727Z,21.03
2022-10-20T16:46:04.933Z,21.00
2022-10-20T16:48:32.835Z,20.96
2022-10-20T16:51:04.335Z,20.95
2022-10-20T16:53:30.748Z,20.92
2022-10-20T16:55:57.191Z,20.90
2022-10-20T16:58:24.174Z,20.88
2022-10-20T17:01:00.958Z,20.86
2022-10-20T17:03:27.507Z,20.83
2022-10-20T17:05:55.081Z,20.79
2022-10-20T17:08:21.657Z,20.76
2022-10-20T17:10:49.666Z,20.72
2022-10-20T17:13:15.957Z,20.68
2022-10-20T17:15:42.406Z,20.63
2022-10-20T17:18:08.861Z,20.59
2022-10-20T17:20:37.024Z,20.54
2022-10-20T17:23:03.286Z,20.49
2022-10-20T17:25:31.075Z,20.44
2022-10-20T17:27:58.337Z,20.40
2022-10-20T17:30:24.651Z,20.36
2022-10-20T17:32:51.105Z,20.32
2022-10-20T17:35:17.631Z,20.28
2022-10-20T17:37:44.125Z,20.25
2022-10-20T17:40:10.781Z,20.22
2022-10-20T17:42:37.363Z,20.19
2022-10-20T17:45:03.980Z,20.16
2022-10-20T17:47:30.202Z,20.13
2022-10-20T17:49:56.571Z,20.10
2022-10-20T17:52:22.807Z,20.07
2022-10-20T17:54:49.023Z,20.03
2022-10-20T17:57:15.289Z,20.01
2022-10-20T17:59:52.463Z,19.97
2022-10-20T18:02:23.462Z,19.94
2022-10-20T18:04:50.418Z,19.91
2022-10-20T18:07:16.630Z,19.89
2022-10-20T18:09:43.918Z,19.87
2022-10-20T18:12:10.382Z,19.86
2022-10-20T18:14:36.625Z,19.83
2022-10-20T18:17:02.849Z,19.82
2022-10-20T18:19:29.262Z,19.80
2022-10-20T18:21:55.486Z,19.79
2022-10-20T18:24:21.716Z,19.79
2022-10-20T18:26:48.130Z,19.77
2022-10-20T18:29:14.951Z,19.76
2022-10-20T18:31:42.564Z,19.75
2022-10-20T18:34:11.023Z,19.74
2022-10-20T18:36:40.408Z,19.72
2022-10-20T18:39:10.001Z,19.70
2022-10-20T18:41:38.383Z,19.68
2022-10-20T18:44:06.859Z,19.65
2022-10-20T18:46:34.338Z,19.65
2022-10-20T18:49:03.252Z,19.63
2022-10-20T18:51:30.007Z,19.61
2022-10-20T18:53:57.968Z,19.61
2022-10-20T18:56:25.491Z,19.58
2022-10-20T18:58:52.997Z,19.57
2022-10-20T19:01:20.200Z,19.56
2022-10-20T19:03:48.535Z,19.54
2022-10-20T19:06:16.245Z,19.56
2022-10-20T19:08:42.924Z,19.54
2022-10-20T19:11:11.191Z,19.54
2022-10-20T19:13:37.973Z,19.56
2022-10-20T19:16:11.180Z,19.57
2022-10-20T19:18:40.464Z,19.58
2022-10-20T19:21:08.343Z,19.59
2022-10-20T19:23:35.843Z,19.62
2022-10-20T19:26:04.176Z,19.63
2022-10-20T19:28:33.255Z,19.66
2022-10-20T19:30:59.615Z,19.67
2022-10-20T19:33:26.610Z,19.68
2022-10-20T19:35:52.981Z,19.70
2022-10-20T19:38:19.947Z,19.70
2022-10-20T19:40:46.187Z,19.71
2022-10-20T19:43:12.516Z,19.71
2022-10-20T19:45:39.139Z,19.72
2022-10-20T19:48:05.384Z,19.71
2022-10-20T19:50:33.251Z,19.70
2022-10-20T19:52:59.567Z,19.69
2022-10-20T19:55:26.127Z,19.69
2022-10-20T19:57:53.217Z,19.69
2022-10-20T20:00:19.532Z,19.66
2022-10-20T20:02:45.861Z,19.64
2022-10-20T20:05:12.280Z,19.62
2022-10-20T20:07:38.877Z,19.59
2022-10-20T20:10:05.780Z,19.56
2022-10-20T20:12:32.069Z,19.54
2022-10-20T20:14:58.447Z,19.50
2022-10-20T20:17:24.726Z,19.49
2022-10-20T20:19:51.014Z,19.44
2022-10-20T20:22:17.354Z,19.43
2022-10-20T20:24:44.047Z,19.42
2022-10-20T20:27:10.762Z,19.42
2022-10-20T20:29:37.171Z,19.44
2022-10-20T20:32:03.607Z,19.47
2022-10-20T20:34:29.965Z,19.50
2022-10-20T20:36:56.366Z,19.52
2022-10-20T20:39:22.635Z,19.54
2022-10-20T20:41:48.995Z,19.56
2022-10-20T20:44:15.493Z,19.58
2022-10-20T20:46:41.915Z,19.59
2022-10-20T20:49:08.362Z,19.62
2022-10-20T20:51:34.926Z,19.64
2022-10-20T20:54:01.694Z,19.65
2022-10-20T20:56:28.197Z,19.64
2022-10-20T20:58:55.574Z,19.65
2022-10-20T21:01:23.937Z,19.65
2022-10-20T21:03:54.247Z,19.67
2022-10-20T21:06:25.646Z,19.69
2022-10-20T21:08:59.772Z,19.73
2022-10-20T21:11:26.840Z,19.77
2022-10-20T21:13:54.237Z,19.82
2022-10-20T21:16:25.960Z,19.87
2022-10-20T21:18:53.898Z,19.93
2022-10-20T21:21:21.641Z,19.97
2022-10-20T21:23:48.135Z,20.03
2022-10-20T21:26:15.712Z,20.07
2022-10-20T21:28:42.556Z,20.11
2022-10-20T21:31:10.365Z,20.15
2022-10-20T21:33:37.397Z,20.17
2022-10-20T21:36:04.930Z,20.19
2022-10-20T21:38:31.726Z,20.21
2022-10-20T21:41:07.189Z,20.23
2022-10-20T21:43:33.922Z,20.25
2022-10-20T21:46:09.436Z,20.24
2022-10-20T21:51:11.513Z,20.26
2022-10-20T21:53:38.483Z,20.25
2022-10-20T21:56:05.285Z,20.24
2022-10-20T21:58:31.668Z,20.22
2022-10-20T22:00:58.026Z,20.20
2022-10-20T22:03:24.751Z,20.17
2022-10-20T22:05:51.498Z,20.15
2022-10-20T22:08:17.807Z,20.16
2022-10-20T22:10:44.137Z,20.15
2022-10-20T22:13:10.382Z,20.15
2022-10-20T22:15:38.118Z,20.16
2022-10-20T22:18:04.372Z,20.17
2022-10-20T22:20:30.646Z,20.19
2022-10-20T22:22:57.462Z,20.22
2022-10-20T22:25:23.802Z,20.26
2022-10-20T22:27:50.189Z,20.27
2022-10-20T22:30:16.432Z,20.28
2022-10-20T22:32:42.665Z,20.33
2022-10-20T22:35:08.984Z,20.37
2022-10-20T22:37:35.228Z,20.42
2022-10-20T22:40:01.566Z,20.48
2022-10-20T22:42:27.777Z,20.56
2022-10-20T22:44:54.179Z,20.65
2022-10-20T22:47:20.607Z,20.75
2022-10-20T22:49:46.846Z,20.84
2022-10-20T22:52:13.263Z,20.92
2022-10-20T22:54:39.480Z,21.00
2022-10-20T22:57:05.731Z,21.08
2022-10-20T22:59:31.994Z,21.14
2022-10-20T23:01:58.210Z,21.19
2022-10-20T23:04:24.451Z,21.23
2022-10-20T23:06:50.739Z,21.26
2022-10-20T23:09:17.074Z,21.28
2022-10-20T23:11:43.541Z,21.30
2022-10-20T23:14:09.829Z,21.32
2022-10-20T23:16:36.246Z,21.34
2022-10-20T23:19:02.562Z,21.37
2022-10-20T23:21:28.834Z,21.39
2022-10-20T23:23:55.101Z,21.42
2022-10-20T23:26:21.568Z,21.47
2022-10-20T23:28:48.688Z,21.52
2022-10-20T23:31:19.482Z,21.57
2022-10-20T23:33:46.663Z,21.64
2022-10-20T23:36:14.024Z,21.72
2022-10-20T23:38:40.755Z,21.77
2022-10-20T23:41:07.267Z,21.84
2022-10-20T23:43:33.900Z,21.90
2022-10-20T23:46:00.330Z,21.94
2022-10-20T23:48:26.897Z,21.98
2022-10-20T23:50:53.382Z,22.01
2022-10-20T23:53:20.180Z,22.04
2022-10-20T23:55:46.641Z,22.06
2022-10-20T23:58:13.011Z,22.08
